Time;durP1;ratioP1;P1;durP2;ratioP2;P2;SDS_P1;SDS_P2;PMS_P1;PMS_P2;Temp;Humidity;BMP_temperature;BMP_pressure;BME280_temperature;BME280_humidity;BME280_pressure;Samples;Min_cycle;Max_cycle;Signal;HPM_P1;HPM_P2
2022/01/26 06:46:49;;;;;;;31.95;16.13;;;;;;;;;;6345058;22;20022;-84
2022/01/26 06:51:51;;;;;;;26.73;14.18;;;;;;;;;;6381917;22;20030;-81
2022/01/26 06:54:16;;;;;;;32.20;17.17;;;;;;;;;;6371809;22;20009;-81
2022/01/26 06:56:42;;;;;;;29.77;17.30;;;;;;;;;;6371969;22;20006;-81
2022/01/26 06:59:07;;;;;;;34.33;17.23;;;;;;;;;;6371711;22;20009;-84
2022/01/26 07:01:33;;;;;;;30.92;15.80;;;;;;;;;;6371844;22;20002;-84
2022/01/26 07:03:58;;;;;;;36.08;18.35;;;;;;;;;;6371213;22;20077;-82
2022/01/26 07:06:23;;;;;;;34.08;17.55;;;;;;;;;;6371204;22;20077;-81
2022/01/26 07:08:49;;;;;;;29.35;16.42;;;;;;;;;;6371432;22;20458;-85
2022/01/26 07:11:14;;;;;;;29.48;17.48;;;;;;;;;;6371489;22;20013;-85
2022/01/26 07:13:41;;;;;;;31.35;15.60;;;;;;;;;;6371629;22;20002;-84
2022/01/26 07:21:35;;;;;;;34.10;17.83;;;;;;;;;;6371537;22;20028;-83
2022/01/26 07:24:00;;;;;;;33.33;17.98;;;;;;;;;;6371390;22;20464;-83
2022/01/26 07:26:30;;;;;;;33.58;18.13;;;;;;;;;;6371313;22;20397;-83
2022/01/26 07:29:06;;;;;;;31.92;16.45;;;;;;;;;;6371523;22;20389;-84
2022/01/26 07:31:33;;;;;;;34.17;16.83;;;;;;;;;;6371374;22;20014;-83
2022/01/26 07:33:59;;;;;;;29.33;15.80;;;;;;;;;;6370824;22;20022;-83
2022/01/26 07:36:25;;;;;;;29.83;15.88;;;;;;;;;;6371207;22;19998;-83
2022/01/26 07:38:52;;;;;;;32.13;17.65;;;;;;;;;;6343488;22;20111;-83
2022/01/26 07:41:18;;;;;;;31.75;16.67;;;;;;;;;;6371288;22;20002;-83
2022/01/26 07:43:44;;;;;;;32.20;15.85;;;;;;;;;;6371208;22;20075;-83
2022/01/26 07:46:10;;;;;;;31.60;17.25;;;;;;;;;;6371233;22;20232;-85
2022/01/26 07:48:36;;;;;;;27.73;16.55;;;;;;;;;;6371292;22;20006;-83
2022/01/26 07:51:01;;;;;;;29.75;18.05;;;;;;;;;;6371023;22;20081;-83
2022/01/26 07:53:27;;;;;;;31.40;17.75;;;;;;;;;;6371033;22;19998;-85
2022/01/26 07:55:52;;;;;;;30.25;18.13;;;;;;;;;;6371300;22;20063;-85
2022/01/26 07:58:19;;;;;;;34.13;18.23;;;;;;;;;;6371148;22;20002;-83
2022/01/26 08:00:45;;;;;;;33.08;18.73;;;;;;;;;;6371033;22;20328;-82
2022/01/26 08:03:11;;;;;;;35.60;19.65;;;;;;;;;;6371155;22;20006;-83
2022/01/26 08:05:37;;;;;;;32.20;18.10;;;;;;;;;;6371176;22;20077;-83
2022/01/26 08:08:03;;;;;;;40.15;19.33;;;;;;;;;;6370990;22;20005;-84
2022/01/26 08:10:28;;;;;;;34.25;19.13;;;;;;;;;;6370859;22;20077;-83
2022/01/26 08:12:54;;;;;;;33.90;17.83;;;;;;;;;;6371122;22;20069;-83
2022/01/26 08:15:19;;;;;;;32.15;18.83;;;;;;;;;;6371032;22;20039;-83
2022/01/26 08:17:45;;;;;;;36.47;19.60;;;;;;;;;;6371106;22;20022;-85
2022/01/26 08:20:10;;;;;;;32.92;17.90;;;;;;;;;;6371164;22;20002;-83
2022/01/26 08:22:37;;;;;;;38.65;22.00;;;;;;;;;;6370937;22;20087;-83
2022/01/26 08:25:03;;;;;;;37.60;22.00;;;;;;;;;;6371016;22;20358;-85
2022/01/26 08:27:37;;;;;;;39.60;23.23;;;;;;;;;;6370602;22;20002;-83
2022/01/26 08:30:08;;;;;;;41.55;22.70;;;;;;;;;;6370680;22;20008;-83
2022/01/26 08:32:33;;;;;;;42.88;22.10;;;;;;;;;;6342868;22;20456;-83
2022/01/26 08:34:59;;;;;;;38.88;21.67;;;;;;;;;;6371235;22;20009;-85
2022/01/26 08:37:24;;;;;;;40.92;22.60;;;;;;;;;;6371456;22;20421;-83
2022/01/26 08:39:50;;;;;;;33.60;20.98;;;;;;;;;;6343092;22;20006;-82
2022/01/26 08:42:15;;;;;;;38.40;20.08;;;;;;;;;;6371648;22;20013;-83
2022/01/26 08:44:41;;;;;;;33.85;19.65;;;;;;;;;;6370737;22;20002;-83
2022/01/26 08:47:06;;;;;;;34.60;20.38;;;;;;;;;;6370464;22;20018;-85
2022/01/26 08:49:33;;;;;;;36.55;20.02;;;;;;;;;;6370989;22;20022;-85
2022/01/26 08:51:59;;;;;;;36.38;19.80;;;;;;;;;;6370422;22;20006;-85
2022/01/26 08:54:25;;;;;;;35.60;20.10;;;;;;;;;;6370714;22;20005;-85
2022/01/26 08:56:51;;;;;;;33.78;19.88;;;;;;;;;;6370663;22;19995;-83
2022/01/26 08:59:22;;;;;;;35.55;21.27;;;;;;;;;;6370734;22;20003;-81
2022/01/26 09:01:47;;;;;;;;;;;;;;;;;;6371059;22;20005;-81
2022/01/26 09:04:13;;;;;;;33.10;18.00;;;;;;;;;;6370620;22;19906;-82
2022/01/26 09:06:51;;;;;;;28.27;16.13;;;;;;;;;;6370894;22;20003;-84
2022/01/26 09:09:21;;;;;;;27.10;16.33;;;;;;;;;;6370791;22;20044;-81
2022/01/26 09:11:48;;;;;;;26.20;15.93;;;;;;;;;;6370387;22;20002;-84
2022/01/26 09:14:19;;;;;;;25.80;16.35;;;;;;;;;;6370387;22;19999;-81
2022/01/26 09:16:50;;;;;;;21.75;15.05;;;;;;;;;;6371972;22;20032;-82
2022/01/26 09:19:29;;;;;;;28.15;15.95;;;;;;;;;;6372802;22;19998;-84
2022/01/26 09:22:04;;;;;;;27.10;15.38;;;;;;;;;;6372602;22;20009;-81
2022/01/26 09:24:31;;;;;;;29.95;16.60;;;;;;;;;;6372705;22;20363;-84
2022/01/26 09:26:58;;;;;;;25.58;16.27;;;;;;;;;;6372845;22;19998;-81
2022/01/26 09:29:23;;;;;;;26.42;15.82;;;;;;;;;;6372855;22;20073;-83
2022/01/26 09:31:49;;;;;;;25.17;15.98;;;;;;;;;;6372635;22;20033;-85
2022/01/26 09:34:20;;;;;;;28.17;16.45;;;;;;;;;;6372797;22;20006;-81
2022/01/26 09:36:46;;;;;;;29.23;16.38;;;;;;;;;;6372723;22;20025;-83
2022/01/26 09:39:14;;;;;;;29.25;17.05;;;;;;;;;;6372484;22;20405;-81
2022/01/26 09:41:40;;;;;;;29.00;16.42;;;;;;;;;;6372481;22;20047;-82
2022/01/26 09:44:06;;;;;;;26.13;16.40;;;;;;;;;;6372366;22;20492;-84
2022/01/26 09:46:32;;;;;;;25.08;16.48;;;;;;;;;;6372437;22;20007;-82
2022/01/26 09:48:58;;;;;;;29.00;17.52;;;;;;;;;;6372358;22;20085;-85
2022/01/26 09:51:24;;;;;;;29.15;17.95;;;;;;;;;;6372363;22;20425;-82
2022/01/26 09:54:19;;;;;;;26.50;17.10;;;;;;;;;;6372328;22;20038;-82
2022/01/26 09:56:48;;;;;;;30.90;18.27;;;;;;;;;;6345653;22;20065;-82
2022/01/26 09:59:15;;;;;;;30.70;18.97;;;;;;;;;;6372325;22;20009;-82
2022/01/26 10:01:45;;;;;;;30.92;19.00;;;;;;;;;;6344230;22;20070;-82
2022/01/26 10:04:21;;;;;;;37.03;20.63;;;;;;;;;;6344206;22;20425;-82
2022/01/26 10:06:58;;;;;;;36.00;20.75;;;;;;;;;;6372115;22;19994;-82
2022/01/26 10:17:39;;;;;;;36.80;22.98;;;;;;;;;;6372229;22;20091;-82
2022/01/26 10:20:06;;;;;;;40.08;24.90;;;;;;;;;;6372396;22;19990;-84
2022/01/26 10:22:34;;;;;;;39.25;25.17;;;;;;;;;;6372153;22;20025;-81
2022/01/26 10:25:16;;;;;;;103.10;58.35;;;;;;;;;;6371961;22;20005;-82
2022/01/26 10:27:46;;;;;;;40.78;25.27;;;;;;;;;;6371609;22;20077;-84
2022/01/26 10:30:13;;;;;;;39.90;25.40;;;;;;;;;;6371982;22;20124;-82
2022/01/26 10:32:40;;;;;;;40.13;26.63;;;;;;;;;;6371912;22;20006;-82
2022/01/26 10:35:07;;;;;;;44.80;29.35;;;;;;;;;;6372069;22;19995;-83
2022/01/26 10:37:34;;;;;;;44.25;29.25;;;;;;;;;;6372154;22;20310;-86
2022/01/26 10:40:16;;;;;;;44.40;28.50;;;;;;;;;;6372220;22;20154;-88
2022/01/26 10:43:13;;;;;;;40.72;28.48;;;;;;;;;;6372931;22;20009;-90
2022/01/26 10:46:04;;;;;;;34.78;24.27;;;;;;;;;;6372346;22;20004;-90
2022/01/26 10:53:53;;;;;;;36.72;27.08;;;;;;;;;;6376114;22;20013;-88
2022/01/26 10:56:19;;;;;;;37.75;27.90;;;;;;;;;;6373522;22;20077;-87
2022/01/26 10:58:45;;;;;;;41.63;30.08;;;;;;;;;;6347299;22;20337;-92
2022/01/26 11:01:11;;;;;;;42.83;29.30;;;;;;;;;;6372935;22;20077;-91
2022/01/26 11:03:38;;;;;;;47.95;34.08;;;;;;;;;;6372681;22;20075;-91
2022/01/26 11:06:04;;;;;;;43.95;32.88;;;;;;;;;;6344507;22;20002;-90
2022/01/26 11:08:34;;;;;;;49.67;34.50;;;;;;;;;;6372293;22;20006;-88
2022/01/26 11:11:00;;;;;;;48.40;32.72;;;;;;;;;;6345552;22;20002;-89
2022/01/26 11:13:28;;;;;;;49.58;32.85;;;;;;;;;;6372805;22;19998;-87
2022/01/26 11:16:12;;;;;;;50.30;32.95;;;;;;;;;;6373168;22;19998;-89
2022/01/26 11:19:12;;;;;;;44.00;31.17;;;;;;;;;;6373909;22;20081;-89
2022/01/26 11:21:39;;;;;;;;;;;;;;;;;;6372320;22;20054;-88
2022/01/26 11:24:15;;;;;;;47.03;30.90;;;;;;;;;;6371601;22;19948;-86
2022/01/26 11:26:41;;;;;;;45.85;30.60;;;;;;;;;;6371732;22;20037;-89
2022/01/26 11:29:26;;;;;;;52.40;33.08;;;;;;;;;;6371962;22;20081;-87
2022/01/26 11:32:09;;;;;;;47.65;31.65;;;;;;;;;;6343578;22;20051;-87
2022/01/26 11:34:35;;;;;;;49.92;32.25;;;;;;;;;;6343620;22;20040;-85
2022/01/26 11:37:04;;;;;;;50.90;32.70;;;;;;;;;;6371447;22;20011;-85
2022/01/26 11:45:34;;;;;;;51.80;31.83;;;;;;;;;;6319346;22;20002;-86
2022/01/26 11:48:24;;;;;;;52.17;32.35;;;;;;;;;;6371210;22;20010;-85
2022/01/26 11:51:00;;;;;;;50.75;31.65;;;;;;;;;;6371158;22;20006;-84
2022/01/26 11:53:28;;;;;;;51.97;33.75;;;;;;;;;;6371080;22;20005;-86
2022/01/26 11:56:07;;;;;;;59.08;35.78;;;;;;;;;;6371125;22;20002;-85
2022/01/26 11:58:39;;;;;;;55.00;35.07;;;;;;;;;;6343493;22;20140;-85
2022/01/26 12:01:18;;;;;;;61.35;36.25;;;;;;;;;;6343386;22;20227;-85
2022/01/26 12:04:12;;;;;;;61.75;36.15;;;;;;;;;;6343165;22;20334;-85
2022/01/26 12:06:48;;;;;;;59.90;35.53;;;;;;;;;;6370895;22;20005;-85
2022/01/26 12:09:14;;;;;;;60.70;35.40;;;;;;;;;;6343208;22;20014;-86
2022/01/26 12:11:39;;;;;;;58.97;35.05;;;;;;;;;;6370977;22;20010;-85
2022/01/26 12:14:12;;;;;;;61.00;34.85;;;;;;;;;;6370835;22;20037;-84
2022/01/26 12:16:45;;;;;;;58.53;35.58;;;;;;;;;;6371320;22;20317;-87
2022/01/26 12:38:17;;;;;;;64.22;36.47;;;;;;;;;;6381405;22;20428;-85
2022/01/26 12:43:47;;;;;;;65.43;36.78;;;;;;;;;;6370981;22;20016;-86
2022/01/26 18:49:33;;;;;;;89.75;40.90;;;;;;;;;;6319212;22;20007;-83
2022/01/26 18:52:00;;;;;;;93.13;42.83;;;;;;;;;;6309181;22;20003;-82
2022/01/26 18:54:28;;;;;;;85.95;38.65;;;;;;;;;;6308918;22;20029;-82
2022/01/26 18:56:56;;;;;;;93.40;42.58;;;;;;;;;;6309239;22;20003;-81
2022/01/26 18:59:22;;;;;;;88.80;40.83;;;;;;;;;;6308834;22;20325;-80
2022/01/26 19:01:49;;;;;;;85.28;40.13;;;;;;;;;;6308832;22;20007;-83
2022/01/26 19:04:17;;;;;;;88.93;42.08;;;;;;;;;;6310189;22;19999;-81
2022/01/26 19:06:49;;;;;;;95.20;41.92;;;;;;;;;;6309184;22;20004;-83
2022/01/26 19:09:18;;;;;;;92.43;42.00;;;;;;;;;;6308758;22;19996;-82
2022/01/26 19:11:44;;;;;;;86.90;41.30;;;;;;;;;;6332342;22;20447;-83
2022/01/26 19:14:09;;;;;;;83.03;40.17;;;;;;;;;;6308749;22;20007;-83
2022/01/26 19:16:48;;;;;;;93.35;42.25;;;;;;;;;;6307110;22;20091;-84
2022/01/26 19:19:28;;;;;;;100.00;44.63;;;;;;;;;;6308666;22;20407;-85
2022/01/26 19:22:05;;;;;;;120.95;53.85;;;;;;;;;;6308637;22;19995;-85
2022/01/26 19:27:07;;;;;;;97.68;44.05;;;;;;;;;;6313539;22;20003;-84
2022/01/26 19:32:34;;;;;;;93.82;41.92;;;;;;;;;;6311766;22;20007;-83
2022/01/26 19:53:13;;;;;;;96.72;41.53;;;;;;;;;;6308607;22;20049;-83
2022/01/26 19:55:39;;;;;;;88.32;40.53;;;;;;;;;;6308385;22;20000;-83
2022/01/26 19:58:08;;;;;;;91.75;41.42;;;;;;;;;;6306903;22;20003;-83
2022/01/26 20:00:36;;;;;;;93.80;42.13;;;;;;;;;;6308261;22;20007;-83
2022/01/26 20:03:02;;;;;;;91.82;41.88;;;;;;;;;;6306799;22;20056;-81
2022/01/26 20:05:32;;;;;;;91.90;42.15;;;;;;;;;;6308472;22;20052;-83
2022/01/26 20:08:02;;;;;;;92.45;42.42;;;;;;;;;;6308486;22;20003;-83
2022/01/26 20:10:31;;;;;;;86.88;40.50;;;;;;;;;;6308116;22;20004;-83
2022/01/26 20:13:03;;;;;;;91.05;42.20;;;;;;;;;;6306733;22;20011;-83
2022/01/26 20:15:30;;;;;;;95.00;42.53;;;;;;;;;;6306518;22;20011;-83
2022/01/26 20:17:56;;;;;;;94.22;40.08;;;;;;;;;;6308316;22;20451;-84
2022/01/26 20:20:22;;;;;;;97.85;41.20;;;;;;;;;;6308103;22;20339;-84
2022/01/26 20:22:48;;;;;;;91.47;39.45;;;;;;;;;;6308162;22;19999;-84
2022/01/26 20:25:16;;;;;;;90.43;40.17;;;;;;;;;;6307975;22;20027;-84
2022/01/26 20:27:42;;;;;;;97.05;41.92;;;;;;;;;;6308137;22;20002;-84
2022/01/26 20:30:15;;;;;;;86.75;39.25;;;;;;;;;;6308042;22;20377;-84
2022/01/26 20:32:41;;;;;;;87.47;38.95;;;;;;;;;;6308192;22;20003;-84
2022/01/26 20:35:09;;;;;;;86.13;40.25;;;;;;;;;;6308071;22;20007;-84
2022/01/26 20:37:34;;;;;;;92.03;40.47;;;;;;;;;;6308201;22;20010;-84
2022/01/26 20:40:02;;;;;;;84.43;38.10;;;;;;;;;;6308002;22;20003;-84
2022/01/26 20:42:28;;;;;;;94.60;43.28;;;;;;;;;;6308007;22;20410;-85
2022/01/26 20:44:53;;;;;;;78.60;37.17;;;;;;;;;;6308219;22;19999;-84
2022/01/26 20:47:19;;;;;;;92.43;42.40;;;;;;;;;;6308120;22;20053;-84
2022/01/26 20:49:45;;;;;;;84.70;39.15;;;;;;;;;;6306482;22;19999;-84
2022/01/26 20:52:10;;;;;;;98.57;44.75;;;;;;;;;;6307770;22;20060;-83
2022/01/26 20:54:35;;;;;;;90.50;42.78;;;;;;;;;;6307055;22;21290;-84
2022/01/26 20:57:01;;;;;;;106.78;44.25;;;;;;;;;;6307432;22;19999;-84
2022/01/26 20:59:26;;;;;;;84.32;39.47;;;;;;;;;;6307740;22;20003;-83
2022/01/26 21:01:52;;;;;;;88.15;39.50;;;;;;;;;;6307659;22;20007;-83
2022/01/26 21:04:17;;;;;;;89.13;39.88;;;;;;;;;;6307560;22;19999;-84
2022/01/26 21:06:43;;;;;;;90.90;41.35;;;;;;;;;;6332133;22;20069;-84
2022/01/26 21:09:09;;;;;;;92.60;40.95;;;;;;;;;;6307673;22;20359;-84
2022/01/26 21:11:34;;;;;;;103.38;43.40;;;;;;;;;;6307895;22;20052;-84
2022/01/26 21:14:00;;;;;;;100.90;42.75;;;;;;;;;;6308054;22;20128;-84
2022/01/26 21:16:27;;;;;;;94.57;42.47;;;;;;;;;;6336138;22;20057;-84
2022/01/26 21:18:55;;;;;;;92.78;40.97;;;;;;;;;;6340872;22;19999;-84
2022/01/26 21:21:22;;;;;;;95.85;41.17;;;;;;;;;;6313031;22;20085;-84
2022/01/26 21:23:47;;;;;;;86.90;41.35;;;;;;;;;;6340506;22;20004;-83
2022/01/26 21:26:13;;;;;;;87.45;38.97;;;;;;;;;;6340881;22;20010;-83
2022/01/26 21:28:38;;;;;;;89.45;41.22;;;;;;;;;;6340789;22;19995;-83
2022/01/26 21:31:04;;;;;;;92.68;40.47;;;;;;;;;;6340740;22;20013;-84
2022/01/26 21:33:33;;;;;;;89.22;38.70;;;;;;;;;;6340848;22;20056;-84
2022/01/26 21:35:59;;;;;;;81.38;39.08;;;;;;;;;;6340836;22;20022;-83
2022/01/26 21:38:24;;;;;;;90.57;39.17;;;;;;;;;;6312903;22;20445;-85
2022/01/26 21:40:50;;;;;;;83.35;39.90;;;;;;;;;;6312871;22;20380;-84
2022/01/26 21:43:15;;;;;;;92.38;40.95;;;;;;;;;;6340951;22;20006;-84
2022/01/26 21:45:41;;;;;;;89.47;40.13;;;;;;;;;;6340829;22;20347;-84
2022/01/26 21:48:06;;;;;;;92.78;40.03;;;;;;;;;;6341309;22;20314;-84
2022/01/26 21:50:32;;;;;;;85.60;38.95;;;;;;;;;;6340617;22;19999;-84
2022/01/26 21:52:58;;;;;;;86.15;39.38;;;;;;;;;;6341011;22;20331;-84
2022/01/26 21:55:23;;;;;;;93.32;40.70;;;;;;;;;;6340996;22;20037;-84
2022/01/26 21:57:49;;;;;;;94.03;39.28;;;;;;;;;;6341215;22;20037;-85
2022/01/26 22:00:19;;;;;;;94.45;41.28;;;;;;;;;;6340665;22;20368;-84
2022/01/26 22:02:45;;;;;;;84.63;39.33;;;;;;;;;;6340791;22;20010;-84
2022/01/26 22:05:11;;;;;;;86.85;38.55;;;;;;;;;;6340791;22;19999;-84
2022/01/26 22:07:36;;;;;;;87.22;39.25;;;;;;;;;;6341298;22;20011;-84
2022/01/26 22:10:03;;;;;;;91.97;41.40;;;;;;;;;;6340613;22;20048;-84
2022/01/26 22:12:28;;;;;;;89.30;41.80;;;;;;;;;;6340513;22;20082;-84
2022/01/26 22:14:54;;;;;;;86.70;37.95;;;;;;;;;;6340442;22;20010;-84
2022/01/26 22:17:19;;;;;;;80.43;37.75;;;;;;;;;;6340769;22;20051;-84
2022/01/26 22:19:45;;;;;;;84.45;37.97;;;;;;;;;;6340436;22;20002;-84
2022/01/26 22:22:12;;;;;;;92.95;40.10;;;;;;;;;;6340336;22;20027;-85
2022/01/26 22:24:38;;;;;;;78.13;37.03;;;;;;;;;;6340519;22;20010;-84
2022/01/26 22:27:04;;;;;;;78.10;37.75;;;;;;;;;;6340460;22;20003;-84
2022/01/26 22:29:30;;;;;;;84.35;37.25;;;;;;;;;;6340492;22;20002;-84
2022/01/26 22:31:56;;;;;;;80.60;37.42;;;;;;;;;;6340307;22;20007;-84
2022/01/26 22:34:24;;;;;;;90.22;40.03;;;;;;;;;;6340289;22;19999;-85
2022/01/26 22:36:49;;;;;;;87.25;38.83;;;;;;;;;;6312793;22;20329;-84
2022/01/26 22:39:15;;;;;;;86.55;39.88;;;;;;;;;;6340631;22;20006;-85
2022/01/26 22:41:44;;;;;;;83.05;37.60;;;;;;;;;;6340328;22;20001;-85
2022/01/26 22:44:10;;;;;;;87.65;40.67;;;;;;;;;;6340360;22;20440;-85
2022/01/26 22:46:35;;;;;;;86.53;40.17;;;;;;;;;;6340309;22;20026;-85
2022/01/26 22:49:01;;;;;;;90.72;41.30;;;;;;;;;;6312724;22;20026;-84
2022/01/26 22:51:27;;;;;;;94.55;39.55;;;;;;;;;;6340175;22;20014;-84
2022/01/26 22:53:52;;;;;;;90.18;40.38;;;;;;;;;;6312565;22;20075;-84
2022/01/26 22:56:18;;;;;;;95.38;40.17;;;;;;;;;;6340328;22;19999;-84
2022/01/26 22:58:43;;;;;;;84.40;38.58;;;;;;;;;;6340461;22;19999;-84
2022/01/26 23:03:54;;;;;;;90.43;38.05;;;;;;;;;;6340498;22;20034;-85
2022/01/26 23:06:23;;;;;;;85.85;38.33;;;;;;;;;;6340192;22;19999;-84
2022/01/26 23:08:55;;;;;;;85.22;38.22;;;;;;;;;;6340182;22;20006;-84
2022/01/26 23:11:27;;;;;;;81.63;37.17;;;;;;;;;;6312554;22;20038;-84
2022/01/26 23:13:53;;;;;;;82.45;38.50;;;;;;;;;;6339984;22;20010;-84
2022/01/26 23:16:20;;;;;;;79.20;37.00;;;;;;;;;;6339942;22;20082;-84
2022/01/26 23:18:47;;;;;;;77.93;36.72;;;;;;;;;;6312503;22;20003;-84
2022/01/26 23:21:13;;;;;;;78.90;36.88;;;;;;;;;;6340613;22;19994;-84
2022/01/26 23:23:39;;;;;;;80.65;37.83;;;;;;;;;;6340139;22;20303;-84
2022/01/26 23:26:43;;;;;;;77.82;35.05;;;;;;;;;;6340035;22;19999;-84
2022/01/26 23:29:19;;;;;;;85.18;38.83;;;;;;;;;;6334085;22;20011;-84
2022/01/26 23:32:21;;;;;;;92.05;37.92;;;;;;;;;;6339707;22;20072;-83
